Time;durP1;ratioP1;P1;durP2;ratioP2;P2;SDS_P1;SDS_P2;PMS_P1;PMS_P2;Temp;Humidity;BMP_temperature;BMP_pressure;BME280_temperature;BME280_humidity;BME280_pressure;Samples;Min_cycle;Max_cycle;Signal;HPM_P1;HPM_P2
2024/01/13 00:00:05;;;;;;;12.07;7.40;;;7.30;54.30;;;;;;349597;28;981;-53
2024/01/13 00:00:16;;;;;;;9.60;7.45;;;7.30;54.40;;;;;;349708;28;919;-53
2024/01/13 00:00:26;;;;;;;9.65;7.57;;;7.30;54.40;;;;;;349633;28;1501;-54
2024/01/13 00:00:37;;;;;;;9.90;7.50;;;7.30;54.40;;;;;;349610;28;1382;-54
2024/01/13 00:00:48;;;;;;;9.90;7.53;;;7.30;54.30;;;;;;349651;28;1015;-53
2024/01/13 00:00:59;;;;;;;9.73;7.47;;;7.30;54.30;;;;;;349628;28;1096;-54
2024/01/13 00:01:09;;;;;;;9.88;7.53;;;7.30;54.30;;;;;;349614;28;1118;-54
2024/01/13 00:01:20;;;;;;;10.90;7.72;;;7.30;54.30;;;;;;349607;28;1099;-54
2024/01/13 00:01:31;;;;;;;10.93;7.53;;;7.30;54.30;;;;;;349627;28;1318;-53
2024/01/13 00:01:42;;;;;;;10.75;7.55;;;7.30;54.40;;;;;;349626;28;995;-54
2024/01/13 00:01:52;;;;;;;9.93;7.50;;;7.30;54.40;;;;;;349552;28;1095;-53
2024/01/13 00:02:03;;;;;;;9.88;7.43;;;7.20;54.40;;;;;;349694;28;821;-53
2024/01/13 00:02:14;;;;;;;10.82;7.68;;;7.30;54.30;;;;;;349661;28;1015;-53
2024/01/13 00:02:25;;;;;;;10.68;7.78;;;7.30;54.30;;;;;;349578;28;1103;-54
2024/01/13 00:02:36;;;;;;;11.53;7.90;;;7.30;54.30;;;;;;349571;28;951;-53
2024/01/13 00:02:46;;;;;;;11.13;7.68;;;7.30;54.40;;;;;;349611;28;1023;-53
2024/01/13 00:02:57;;;;;;;11.25;7.63;;;7.30;54.40;;;;;;349649;28;1004;-54
2024/01/13 00:03:08;;;;;;;10.63;7.72;;;7.20;54.40;;;;;;349656;28;995;-53
2024/01/13 00:03:19;;;;;;;9.88;7.35;;;7.20;54.40;;;;;;349661;28;975;-52
2024/01/13 00:03:29;;;;;;;9.90;7.57;;;7.20;54.40;;;;;;349713;28;813;-53
2024/01/13 00:03:40;;;;;;;9.73;7.75;;;7.20;54.40;;;;;;349568;28;1869;-53
2024/01/13 00:03:51;;;;;;;9.52;7.75;;;7.20;54.30;;;;;;349693;28;1007;-52
2024/01/13 00:04:01;;;;;;;9.13;7.20;;;7.30;54.40;;;;;;349674;28;987;-53
2024/01/13 00:04:12;;;;;;;9.65;7.35;;;7.20;54.50;;;;;;349696;28;809;-54
2024/01/13 00:04:23;;;;;;;10.23;7.67;;;7.30;54.40;;;;;;349623;28;1442;-53
2024/01/13 00:04:34;;;;;;;10.15;8.00;;;7.20;54.40;;;;;;349583;28;1123;-54
2024/01/13 00:04:44;;;;;;;9.70;7.75;;;7.20;54.40;;;;;;349704;28;1034;-53
2024/01/13 00:04:55;;;;;;;9.23;7.40;;;7.20;54.50;;;;;;349697;28;1027;-53
2024/01/13 00:05:06;;;;;;;9.30;7.35;;;7.20;54.50;;;;;;349645;28;828;-54
2024/01/13 00:05:18;;;;;;;9.93;7.45;;;7.20;54.50;;;;;;349605;28;1531;-53
2024/01/13 00:05:28;;;;;;;10.13;7.47;;;7.20;54.60;;;;;;349609;28;1050;-55
2024/01/13 00:05:39;;;;;;;10.25;7.57;;;7.20;54.70;;;;;;349688;28;836;-53
2024/01/13 00:05:50;;;;;;;10.63;7.85;;;7.20;54.70;;;;;;349659;28;1326;-53
2024/01/13 00:06:01;;;;;;;10.35;7.78;;;7.20;54.60;;;;;;349619;28;1011;-52
2024/01/13 00:06:12;;;;;;;10.35;7.70;;;7.20;54.60;;;;;;349604;28;1003;-53
2024/01/13 00:06:23;;;;;;;10.63;7.43;;;7.20;54.60;;;;;;349707;28;874;-55
2024/01/13 00:06:33;;;;;;;11.32;7.57;;;7.30;54.70;;;;;;349557;28;1055;-55
2024/01/13 00:06:44;;;;;;;11.27;7.73;;;7.20;54.70;;;;;;349721;28;1015;-55
2024/01/13 00:06:55;;;;;;;12.15;8.48;;;7.20;54.60;;;;;;349695;28;876;-55
2024/01/13 00:07:06;;;;;;;11.35;8.20;;;7.20;54.60;;;;;;349570;28;1063;-54
2024/01/13 00:07:16;;;;;;;10.77;7.78;;;7.20;54.60;;;;;;349737;28;1018;-53
2024/01/13 00:07:27;;;;;;;9.93;7.32;;;7.20;54.70;;;;;;349673;28;904;-54
2024/01/13 00:07:38;;;;;;;10.63;7.63;;;7.20;54.70;;;;;;349619;28;907;-53
2024/01/13 00:07:49;;;;;;;10.04;7.54;;;7.20;54.80;;;;;;349667;28;2175;-53
2024/01/13 00:08:00;;;;;;;9.77;7.43;;;7.20;54.80;;;;;;349653;28;1027;-53
2024/01/13 00:08:11;;;;;;;8.98;7.13;;;7.20;54.80;;;;;;349666;28;959;-54
2024/01/13 00:08:21;;;;;;;9.32;7.32;;;7.20;54.80;;;;;;349689;28;1444;-53
2024/01/13 00:08:32;;;;;;;9.30;7.25;;;7.20;54.80;;;;;;349710;28;1026;-55
2024/01/13 00:08:43;;;;;;;9.15;7.25;;;7.20;54.70;;;;;;349629;28;949;-53
2024/01/13 00:08:54;;;;;;;8.70;7.18;;;7.20;54.60;;;;;;349694;28;1050;-53
2024/01/13 00:09:05;;;;;;;9.27;7.20;;;7.20;54.70;;;;;;349656;28;789;-59
2024/01/13 00:09:16;;;;;;;10.13;7.57;;;7.20;54.80;;;;;;349625;28;983;-54
2024/01/13 00:09:27;;;;;;;10.23;7.60;;;7.20;54.80;;;;;;349731;28;1030;-55
2024/01/13 00:09:37;;;;;;;10.32;7.53;;;7.20;54.80;;;;;;349643;28;1051;-53
2024/01/13 00:09:48;;;;;;;9.57;7.40;;;7.20;54.80;;;;;;349610;28;949;-53
2024/01/13 00:09:59;;;;;;;9.07;7.28;;;7.20;54.80;;;;;;349673;28;976;-53
2024/01/13 00:10:10;;;;;;;7.93;7.00;;;7.20;54.70;;;;;;349639;28;1521;-53
2024/01/13 00:10:20;;;;;;;9.43;7.20;;;7.20;54.80;;;;;;349574;28;1277;-54
2024/01/13 00:10:32;;;;;;;10.20;7.27;;;7.20;54.90;;;;;;349711;28;952;-54
2024/01/13 00:10:42;;;;;;;12.27;7.60;;;7.20;54.90;;;;;;349664;28;1118;-54
2024/01/13 00:10:53;;;;;;;11.10;7.43;;;7.20;54.80;;;;;;349671;28;1819;-53
2024/01/13 00:11:04;;;;;;;11.60;7.40;;;7.20;54.80;;;;;;349527;28;1427;-54
2024/01/13 00:11:15;;;;;;;10.23;7.35;;;7.20;54.80;;;;;;349683;28;1042;-54
2024/01/13 00:11:26;;;;;;;10.23;7.67;;;7.20;54.80;;;;;;349745;28;931;-53
2024/01/13 00:11:37;;;;;;;9.18;7.57;;;7.20;54.80;;;;;;349579;28;1413;-54
2024/01/13 00:11:48;;;;;;;9.65;7.68;;;7.20;54.80;;;;;;349593;28;987;-54
2024/01/13 00:11:59;;;;;;;9.52;7.65;;;7.20;54.70;;;;;;349606;28;1424;-55
2024/01/13 00:12:09;;;;;;;9.77;7.53;;;7.20;54.80;;;;;;349653;28;1150;-54
2024/01/13 00:12:20;;;;;;;10.07;7.43;;;7.20;54.80;;;;;;349712;28;1839;-53
2024/01/13 00:12:31;;;;;;;11.20;7.38;;;7.20;54.70;;;;;;349544;28;2087;-53
2024/01/13 00:12:42;;;;;;;10.60;7.45;;;7.20;54.80;;;;;;349687;28;1233;-55
2024/01/13 00:12:52;;;;;;;10.03;7.57;;;7.20;54.80;;;;;;349598;28;1913;-55
2024/01/13 00:13:03;;;;;;;10.27;7.72;;;7.20;54.80;;;;;;349729;28;828;-53
2024/01/13 00:13:15;;;;;;;9.45;7.53;;;7.20;54.70;;;;;;349617;28;998;-53
2024/01/13 00:13:25;;;;;;;8.85;7.18;;;7.20;54.70;;;;;;349689;28;1091;-53
2024/01/13 00:13:36;;;;;;;8.30;6.80;;;7.20;54.80;;;;;;349642;28;829;-53
2024/01/13 00:13:47;;;;;;;9.75;6.93;;;7.20;54.80;;;;;;349677;28;829;-53
2024/01/13 00:13:58;;;;;;;11.02;7.43;;;7.20;54.80;;;;;;349647;28;886;-54
2024/01/13 00:14:08;;;;;;;10.90;7.45;;;7.20;54.80;;;;;;349722;28;860;-53
2024/01/13 00:14:19;;;;;;;11.00;7.50;;;7.20;54.80;;;;;;349673;28;1636;-53
2024/01/13 00:14:30;;;;;;;9.70;7.40;;;7.20;54.80;;;;;;349711;28;1014;-53
2024/01/13 00:14:41;;;;;;;10.27;7.45;;;7.20;54.80;;;;;;349631;28;1146;-55
2024/01/13 00:14:51;;;;;;;9.43;7.15;;;7.10;54.90;;;;;;349682;28;864;-53
2024/01/13 00:15:02;;;;;;;9.07;7.00;;;7.10;54.90;;;;;;349653;28;1546;-52
2024/01/13 00:15:13;;;;;;;8.93;7.30;;;7.10;55.00;;;;;;349557;28;1391;-53
2024/01/13 00:15:24;;;;;;;8.73;7.30;;;7.10;55.00;;;;;;349618;28;1034;-54
2024/01/13 00:15:36;;;;;;;9.47;7.47;;;7.10;55.00;;;;;;349746;28;824;-53
2024/01/13 00:15:46;;;;;;;9.90;7.40;;;7.20;55.00;;;;;;349653;28;1023;-57
2024/01/13 00:15:57;;;;;;;11.68;7.97;;;7.10;55.10;;;;;;349615;28;971;-55
2024/01/13 00:16:08;;;;;;;10.40;7.65;;;7.10;55.10;;;;;;349663;28;817;-56
2024/01/13 00:16:19;;;;;;;13.90;7.57;;;7.10;55.10;;;;;;349702;28;1020;-54
2024/01/13 00:16:30;;;;;;;13.77;7.43;;;7.10;55.10;;;;;;349626;28;1830;-53
2024/01/13 00:16:40;;;;;;;15.17;7.80;;;7.10;55.00;;;;;;349674;28;987;-54
2024/01/13 00:16:51;;;;;;;10.40;7.32;;;7.10;55.10;;;;;;349678;28;844;-53
2024/01/13 00:17:02;;;;;;;9.95;7.22;;;7.10;55.10;;;;;;349752;28;828;-54
2024/01/13 00:17:13;;;;;;;9.07;6.95;;;7.10;55.10;;;;;;349605;28;901;-54
2024/01/13 00:17:23;;;;;;;9.80;7.40;;;7.10;55.10;;;;;;349595;28;1254;-55
2024/01/13 00:17:34;;;;;;;9.73;7.43;;;7.20;55.10;;;;;;349650;28;1673;-55
2024/01/13 00:17:45;;;;;;;10.70;7.53;;;7.10;55.10;;;;;;349690;28;1102;-52
2024/01/13 00:17:56;;;;;;;11.02;7.57;;;7.10;55.00;;;;;;349570;28;1107;-54
2024/01/13 00:18:06;;;;;;;11.30;7.60;;;7.20;55.00;;;;;;349650;28;1042;-53
2024/01/13 00:18:19;;;;;;;10.30;7.30;;;7.10;55.10;;;;;;349731;28;983;-59
2024/01/13 00:18:30;;;;;;;9.20;7.18;;;7.10;55.10;;;;;;349644;28;1139;-53
2024/01/13 00:18:40;;;;;;;9.27;7.35;;;7.10;55.10;;;;;;349725;28;940;-57
2024/01/13 00:18:51;;;;;;;10.05;7.53;;;7.10;55.10;;;;;;349629;28;1161;-54
2024/01/13 00:19:02;;;;;;;10.30;7.65;;;7.10;55.00;;;;;;349797;28;1138;-54
2024/01/13 00:19:13;;;;;;;10.77;7.95;;;7.10;55.10;;;;;;349584;28;1076;-53
2024/01/13 00:19:23;;;;;;;10.10;7.73;;;7.10;55.30;;;;;;349691;28;951;-53
2024/01/13 00:19:34;;;;;;;10.13;7.47;;;7.10;55.20;;;;;;349537;28;1091;-52
2024/01/13 00:19:45;;;;;;;10.07;7.35;;;7.10;55.30;;;;;;349587;28;1099;-53
2024/01/13 00:19:56;;;;;;;10.70;7.68;;;7.10;55.30;;;;;;349621;28;1149;-53
2024/01/13 00:20:08;;;;;;;10.52;7.75;;;7.10;55.30;;;;;;349637;28;967;-53
2024/01/13 00:20:18;;;;;;;9.57;7.38;;;7.10;55.30;;;;;;349535;28;1233;-53
2024/01/13 00:20:29;;;;;;;9.20;7.23;;;7.10;55.30;;;;;;349616;28;1589;-53
2024/01/13 00:20:40;;;;;;;8.93;7.40;;;7.10;55.20;;;;;;349621;28;1161;-53
2024/01/13 00:20:51;;;;;;;9.27;7.53;;;7.10;55.20;;;;;;349655;28;1105;-53
2024/01/13 00:21:01;;;;;;;9.45;7.57;;;7.10;55.20;;;;;;349597;28;964;-53
2024/01/13 00:21:12;;;;;;;9.52;7.97;;;7.10;55.20;;;;;;349711;28;1078;-55
2024/01/13 00:21:23;;;;;;;9.87;8.17;;;7.10;55.20;;;;;;349620;28;1169;-53
2024/01/13 00:21:34;;;;;;;9.32;8.05;;;7.10;55.20;;;;;;349639;28;1026;-53
2024/01/13 00:21:44;;;;;;;9.88;7.90;;;7.10;55.20;;;;;;349663;28;999;-54
2024/01/13 00:21:55;;;;;;;10.07;7.88;;;7.10;55.20;;;;;;349585;28;1138;-53
2024/01/13 00:22:06;;;;;;;11.48;7.97;;;7.10;55.10;;;;;;349529;28;1441;-55
2024/01/13 00:22:17;;;;;;;11.63;7.73;;;7.10;55.10;;;;;;349656;28;951;-53
2024/01/13 00:22:27;;;;;;;11.45;7.43;;;7.10;55.10;;;;;;349649;28;933;-54
2024/01/13 00:22:41;;;;;;;10.07;7.32;;;7.10;55.00;;;;;;349676;28;1506;-53
2024/01/13 00:22:52;;;;;;;9.32;7.63;;;7.10;55.00;;;;;;349603;28;1011;-53
2024/01/13 00:23:03;;;;;;;9.00;7.65;;;7.10;54.90;;;;;;349644;28;849;-53
2024/01/13 00:23:14;;;;;;;8.98;7.43;;;7.10;54.90;;;;;;349682;28;857;-53
2024/01/13 00:23:24;;;;;;;9.20;7.55;;;7.10;55.00;;;;;;349633;28;898;-55
2024/01/13 00:23:36;;;;;;;10.80;7.60;;;7.10;55.00;;;;;;349687;28;824;-54
2024/01/13 00:23:46;;;;;;;14.93;7.82;;;7.10;55.00;;;;;;349670;28;1180;-53
2024/01/13 00:23:57;;;;;;;15.23;8.33;;;7.10;55.00;;;;;;349572;28;1018;-53
2024/01/13 00:24:08;;;;;;;14.18;8.40;;;7.10;55.00;;;;;;349618;28;1057;-53
2024/01/13 00:24:19;;;;;;;9.90;8.05;;;7.10;55.00;;;;;;349638;28;1038;-54
2024/01/13 00:24:29;;;;;;;9.82;7.93;;;7.10;55.00;;;;;;349594;28;1052;-53
2024/01/13 00:24:40;;;;;;;9.30;7.85;;;7.10;55.00;;;;;;349672;28;891;-54
2024/01/13 00:24:51;;;;;;;9.53;8.03;;;7.10;55.10;;;;;;349686;28;1058;-54
2024/01/13 00:25:02;;;;;;;10.30;8.02;;;7.10;55.10;;;;;;349544;28;975;-53
2024/01/13 00:25:13;;;;;;;10.32;8.05;;;7.10;55.10;;;;;;349539;28;1623;-53
2024/01/13 00:25:24;;;;;;;10.18;7.93;;;7.10;55.00;;;;;;349669;28;1077;-54
2024/01/13 00:25:35;;;;;;;9.60;7.65;;;7.10;55.10;;;;;;349559;28;1090;-53
2024/01/13 00:25:46;;;;;;;9.75;7.68;;;7.10;55.10;;;;;;349629;28;990;-54
2024/01/13 00:25:57;;;;;;;10.57;7.90;;;7.10;55.00;;;;;;349572;28;1346;-53
2024/01/13 00:26:08;;;;;;;12.55;8.38;;;7.10;55.00;;;;;;349544;28;1035;-54
2024/01/13 00:26:19;;;;;;;12.53;8.07;;;7.10;54.90;;;;;;349686;28;1007;-53
2024/01/13 00:26:29;;;;;;;10.90;7.63;;;7.10;54.90;;;;;;349638;28;1074;-54
2024/01/13 00:26:40;;;;;;;9.27;7.28;;;7.10;54.90;;;;;;349537;28;1783;-53
2024/01/13 00:26:51;;;;;;;8.63;7.30;;;7.10;54.90;;;;;;349679;28;1093;-52
2024/01/13 00:27:02;;;;;;;8.85;7.50;;;7.10;54.90;;;;;;349583;28;1270;-53
2024/01/13 00:27:13;;;;;;;9.05;7.57;;;7.10;54.90;;;;;;349589;28;1100;-53
2024/01/13 00:27:24;;;;;;;9.65;7.53;;;7.10;54.90;;;;;;349639;28;1208;-53
2024/01/13 00:27:35;;;;;;;10.20;7.57;;;7.10;54.90;;;;;;349625;28;1058;-53
2024/01/13 00:27:46;;;;;;;9.77;7.43;;;7.10;55.00;;;;;;349564;28;991;-54
2024/01/13 00:27:57;;;;;;;9.85;7.60;;;7.10;55.00;;;;;;349605;28;1121;-54
2024/01/13 00:28:08;;;;;;;10.27;8.07;;;7.10;55.00;;;;;;349577;28;1341;-54
2024/01/13 00:28:19;;;;;;;10.57;8.17;;;7.10;55.10;;;;;;349576;28;1020;-53
2024/01/13 00:28:29;;;;;;;11.40;8.48;;;7.10;55.10;;;;;;349662;28;825;-53
2024/01/13 00:28:40;;;;;;;10.70;8.43;;;7.10;55.10;;;;;;349643;28;872;-54
2024/01/13 00:28:51;;;;;;;10.88;8.52;;;7.10;55.10;;;;;;349580;28;913;-52
2024/01/13 00:29:02;;;;;;;10.53;8.20;;;7.10;55.00;;;;;;349664;28;1102;-54
2024/01/13 00:29:13;;;;;;;10.75;8.25;;;7.10;54.90;;;;;;349580;28;1109;-54
2024/01/13 00:29:23;;;;;;;10.18;7.90;;;7.10;54.90;;;;;;349588;28;1053;-53
2024/01/13 00:29:34;;;;;;;9.02;7.70;;;7.10;54.90;;;;;;349635;28;1050;-54
2024/01/13 00:29:45;;;;;;;8.82;7.55;;;7.10;55.00;;;;;;349635;28;895;-53
2024/01/13 00:29:56;;;;;;;9.20;7.72;;;7.10;55.00;;;;;;349530;28;1431;-54
2024/01/13 00:30:07;;;;;;;10.05;8.02;;;7.10;55.00;;;;;;349669;28;1051;-53
2024/01/13 00:30:18;;;;;;;10.20;8.13;;;7.10;55.00;;;;;;349655;28;1026;-52
2024/01/13 00:30:29;;;;;;;10.68;7.90;;;7.10;55.00;;;;;;349581;28;1299;-54
2024/01/13 00:30:39;;;;;;;10.55;7.78;;;7.10;55.00;;;;;;349627;28;1082;-55
2024/01/13 00:30:50;;;;;;;10.77;7.80;;;7.10;55.10;;;;;;349664;28;1054;-53
2024/01/13 00:31:01;;;;;;;11.07;8.38;;;7.10;55.10;;;;;;349666;28;936;-53
2024/01/13 00:31:12;;;;;;;12.23;8.50;;;7.10;55.10;;;;;;349651;28;1141;-52
2024/01/13 00:31:23;;;;;;;12.70;8.60;;;7.10;55.10;;;;;;349585;28;1041;-53
2024/01/13 00:31:34;;;;;;;10.88;8.15;;;7.10;55.00;;;;;;349636;28;1053;-54
2024/01/13 00:31:44;;;;;;;11.20;8.20;;;7.10;55.00;;;;;;349668;28;987;-54
2024/01/13 00:31:56;;;;;;;10.13;7.97;;;7.10;54.90;;;;;;349623;28;1420;-53
2024/01/13 00:32:07;;;;;;;10.23;8.00;;;7.10;54.90;;;;;;349604;28;1106;-53
2024/01/13 00:32:17;;;;;;;9.77;7.80;;;7.10;55.00;;;;;;349578;28;1640;-55
2024/01/13 00:32:28;;;;;;;9.82;7.75;;;7.10;55.00;;;;;;349679;28;884;-53
2024/01/13 00:32:39;;;;;;;10.18;7.70;;;7.10;55.00;;;;;;349611;28;1022;-53
2024/01/13 00:32:50;;;;;;;10.65;8.25;;;7.10;55.00;;;;;;349628;28;1066;-53
2024/01/13 00:33:01;;;;;;;10.07;8.20;;;7.10;55.10;;;;;;349591;28;1910;-53
2024/01/13 00:33:12;;;;;;;10.25;8.10;;;7.10;55.10;;;;;;349547;28;1053;-54
2024/01/13 00:33:22;;;;;;;9.88;7.93;;;7.10;55.00;;;;;;349610;28;971;-53
2024/01/13 00:33:33;;;;;;;10.57;8.07;;;7.10;55.00;;;;;;349675;28;997;-53
2024/01/13 00:33:44;;;;;;;10.13;7.88;;;7.10;55.00;;;;;;349619;28;1011;-54
2024/01/13 00:33:55;;;;;;;11.13;8.70;;;7.10;55.00;;;;;;349586;28;1415;-53
2024/01/13 00:34:05;;;;;;;14.85;12.20;;;7.10;54.90;;;;;;349504;28;1269;-53
2024/01/13 00:34:16;;;;;;;14.32;11.98;;;7.10;55.00;;;;;;349652;28;1180;-54
2024/01/13 00:34:27;;;;;;;9.48;7.85;;;7.10;55.00;;;;;;349623;28;1321;-53
2024/01/13 00:34:38;;;;;;;9.63;7.47;;;7.10;55.00;;;;;;349629;28;1026;-54
2024/01/13 00:34:48;;;;;;;9.82;7.47;;;7.10;55.00;;;;;;349660;28;986;-54
2024/01/13 00:34:59;;;;;;;10.50;7.65;;;7.10;55.10;;;;;;349579;28;901;-53
2024/01/13 00:35:11;;;;;;;10.82;7.78;;;7.10;55.00;;;;;;349571;28;1425;-54
2024/01/13 00:35:21;;;;;;;12.50;9.18;;;7.10;55.00;;;;;;349622;28;987;-53
2024/01/13 00:35:32;;;;;;;13.00;9.95;;;7.10;55.00;;;;;;349664;28;963;-54
2024/01/13 00:35:43;;;;;;;12.05;9.60;;;7.10;55.00;;;;;;349677;28;829;-54
2024/01/13 00:35:54;;;;;;;10.13;7.85;;;7.10;55.00;;;;;;349572;28;1034;-53
2024/01/13 00:36:05;;;;;;;9.30;7.27;;;7.10;55.00;;;;;;349610;28;1041;-53
2024/01/13 00:36:16;;;;;;;10.05;7.28;;;7.10;54.90;;;;;;349553;28;963;-53
2024/01/13 00:36:26;;;;;;;9.23;7.17;;;7.10;54.90;;;;;;349510;28;967;-53
2024/01/13 00:36:37;;;;;;;8.82;6.93;;;7.10;55.00;;;;;;349486;28;1233;-53
2024/01/13 00:36:48;;;;;;;8.43;6.88;;;7.10;55.10;;;;;;349477;28;1011;-54
2024/01/13 00:36:59;;;;;;;8.75;7.22;;;7.10;55.00;;;;;;349556;28;1019;-54
2024/01/13 00:37:09;;;;;;;9.15;7.70;;;7.10;54.90;;;;;;349443;28;1596;-54
2024/01/13 00:37:20;;;;;;;8.98;7.55;;;7.10;54.90;;;;;;349541;28;867;-54
2024/01/13 00:37:31;;;;;;;9.20;7.37;;;7.10;54.90;;;;;;349549;28;852;-53
2024/01/13 00:37:42;;;;;;;9.02;7.10;;;7.10;55.00;;;;;;349443;28;1031;-53
2024/01/13 00:37:53;;;;;;;8.77;6.95;;;7.10;55.00;;;;;;349553;28;975;-53
2024/01/13 00:38:04;;;;;;;9.55;7.15;;;7.10;55.10;;;;;;349479;28;1743;-53
2024/01/13 00:38:14;;;;;;;10.05;7.43;;;7.10;55.10;;;;;;349579;28;1094;-53
2024/01/13 00:38:25;;;;;;;10.43;7.72;;;7.10;55.10;;;;;;349596;28;1165;-53
2024/01/13 00:38:37;;;;;;;8.88;7.32;;;7.10;55.10;;;;;;349580;28;1915;-53
2024/01/13 00:38:48;;;;;;;8.98;7.40;;;7.10;55.10;;;;;;349682;28;912;-53
2024/01/13 00:38:59;;;;;;;8.70;7.45;;;7.10;55.10;;;;;;349612;28;1471;-54
2024/01/13 00:39:10;;;;;;;9.20;7.43;;;7.10;55.10;;;;;;349594;28;1234;-53
2024/01/13 00:39:20;;;;;;;9.97;7.40;;;7.10;55.10;;;;;;349630;28;1027;-54
2024/01/13 00:39:31;;;;;;;11.30;7.50;;;7.10;55.00;;;;;;349497;28;1561;-54
2024/01/13 00:39:42;;;;;;;12.00;7.90;;;7.10;55.00;;;;;;349643;28;1082;-54
2024/01/13 00:39:53;;;;;;;11.38;8.00;;;7.10;55.10;;;;;;349610;28;2531;-54
2024/01/13 00:40:04;;;;;;;11.35;8.20;;;7.10;55.10;;;;;;349657;28;1810;-54
2024/01/13 00:40:15;;;;;;;10.65;7.90;;;7.10;55.10;;;;;;349609;28;1958;-53
2024/01/13 00:40:25;;;;;;;10.10;7.72;;;7.10;55.10;;;;;;349571;28;1111;-55
2024/01/13 00:40:36;;;;;;;10.02;7.63;;;7.10;55.10;;;;;;349642;28;916;-54
2024/01/13 00:40:47;;;;;;;12.80;7.70;;;7.10;55.10;;;;;;349642;28;2622;-53
2024/01/13 00:40:58;;;;;;;12.75;7.60;;;7.10;55.00;;;;;;349671;28;1003;-52
2024/01/13 00:41:09;;;;;;;12.43;7.38;;;7.10;55.00;;;;;;349575;28;1894;-53
2024/01/13 00:41:19;;;;;;;9.00;7.15;;;7.10;55.00;;;;;;349566;28;1083;-54
2024/01/13 00:41:30;;;;;;;8.57;7.03;;;7.10;55.00;;;;;;349671;28;979;-53
2024/01/13 00:41:41;;;;;;;9.05;7.32;;;7.10;55.00;;;;;;349614;28;975;-52
2024/01/13 00:41:52;;;;;;;9.57;7.47;;;7.10;55.10;;;;;;349529;28;1086;-53
2024/01/13 00:42:02;;;;;;;10.07;7.72;;;7.10;55.10;;;;;;349629;28;857;-55
2024/01/13 00:42:13;;;;;;;10.32;7.95;;;7.10;55.10;;;;;;349586;28;956;-54
2024/01/13 00:42:24;;;;;;;9.77;7.80;;;7.10;55.00;;;;;;349444;28;2601;-54
2024/01/13 00:42:35;;;;;;;10.13;7.82;;;7.10;55.00;;;;;;349552;28;1027;-53
2024/01/13 00:42:46;;;;;;;9.68;7.90;;;7.10;55.10;;;;;;349647;28;812;-52
2024/01/13 00:42:56;;;;;;;9.57;7.83;;;7.10;55.10;;;;;;349603;28;1061;-53
2024/01/13 00:43:07;;;;;;;9.53;7.67;;;7.10;55.10;;;;;;349666;28;837;-53
2024/01/13 00:43:18;;;;;;;10.00;7.38;;;7.10;55.20;;;;;;349560;28;1154;-56
2024/01/13 00:43:29;;;;;;;9.35;7.25;;;7.10;55.20;;;;;;349657;28;1058;-53
2024/01/13 00:43:40;;;;;;;8.77;7.18;;;7.10;55.30;;;;;;349583;28;1201;-53
2024/01/13 00:43:52;;;;;;;8.98;7.13;;;7.10;55.30;;;;;;349623;28;964;-53
2024/01/13 00:44:03;;;;;;;10.13;7.32;;;7.10;55.20;;;;;;349547;28;1363;-53
2024/01/13 00:44:13;;;;;;;9.80;7.28;;;7.00;55.20;;;;;;349548;28;1235;-53
2024/01/13 00:44:24;;;;;;;9.38;7.25;;;7.10;55.10;;;;;;349624;28;986;-53
2024/01/13 00:44:35;;;;;;;8.93;7.13;;;7.10;55.10;;;;;;349555;28;1150;-53
2024/01/13 00:44:45;;;;;;;9.98;7.63;;;7.00;55.20;;;;;;349460;28;1577;-53
2024/01/13 00:44:56;;;;;;;10.27;7.40;;;7.10;55.20;;;;;;349663;28;836;-54
2024/01/13 00:45:07;;;;;;;9.63;7.28;;;7.00;55.20;;;;;;349621;28;1099;-53
2024/01/13 00:45:18;;;;;;;9.52;7.47;;;7.00;55.10;;;;;;349613;28;984;-53
2024/01/13 00:45:29;;;;;;;9.90;8.00;;;7.00;55.10;;;;;;349549;28;1102;-54
2024/01/13 00:45:40;;;;;;;9.97;7.93;;;7.00;55.10;;;;;;349639;28;991;-53
2024/01/13 00:45:50;;;;;;;9.73;7.53;;;7.10;55.10;;;;;;349525;28;1332;-54
2024/01/13 00:46:01;;;;;;;9.10;6.97;;;7.10;55.10;;;;;;349548;28;1629;-53
2024/01/13 00:46:12;;;;;;;9.02;6.93;;;7.10;55.10;;;;;;349558;28;856;-53
2024/01/13 00:46:23;;;;;;;9.85;7.20;;;7.00;55.10;;;;;;349653;28;1049;-55
2024/01/13 00:46:34;;;;;;;9.95;7.40;;;7.00;55.20;;;;;;349563;28;1127;-54
2024/01/13 00:46:44;;;;;;;9.02;7.30;;;7.10;55.20;;;;;;349658;28;887;-54
2024/01/13 00:46:55;;;;;;;9.10;7.33;;;7.10;55.20;;;;;;349677;28;883;-56
2024/01/13 00:47:06;;;;;;;9.48;7.50;;;7.10;55.10;;;;;;349502;28;1078;-53
2024/01/13 00:47:17;;;;;;;9.35;7.43;;;7.10;55.10;;;;;;349652;28;1059;-54
2024/01/13 00:47:28;;;;;;;8.88;7.13;;;7.10;55.10;;;;;;349520;28;1754;-53
2024/01/13 00:47:38;;;;;;;9.23;7.28;;;7.10;55.20;;;;;;349609;28;2506;-53
2024/01/13 00:47:49;;;;;;;9.70;7.55;;;7.00;55.20;;;;;;349553;28;1425;-54
2024/01/13 00:48:00;;;;;;;8.93;7.50;;;7.10;55.10;;;;;;349637;28;1979;-54
2024/01/13 00:48:11;;;;;;;9.95;7.45;;;7.10;55.10;;;;;;349499;28;1177;-53
2024/01/13 00:48:22;;;;;;;10.00;7.20;;;7.10;55.10;;;;;;349555;28;1090;-55
2024/01/13 00:48:35;;;;;;;9.98;6.93;;;7.10;55.10;;;;;;349563;28;987;-55
2024/01/13 00:48:45;;;;;;;9.82;7.55;;;7.10;55.10;;;;;;349588;28;1035;-53
2024/01/13 00:48:56;;;;;;;9.88;7.60;;;7.10;55.10;;;;;;349587;28;1058;-54
2024/01/13 00:49:07;;;;;;;10.40;7.75;;;7.10;55.10;;;;;;349597;28;1091;-54
2024/01/13 00:49:18;;;;;;;11.43;7.55;;;7.00;55.10;;;;;;349622;28;821;-54
2024/01/13 00:49:28;;;;;;;10.60;7.30;;;7.00;55.10;;;;;;349558;28;925;-56
2024/01/13 00:49:39;;;;;;;8.97;7.03;;;7.00;55.20;;;;;;349671;28;872;-52
2024/01/13 00:49:50;;;;;;;8.32;6.93;;;7.00;55.20;;;;;;349564;28;1023;-54
2024/01/13 00:50:01;;;;;;;8.98;7.40;;;7.00;55.20;;;;;;349664;28;979;-53
2024/01/13 00:50:11;;;;;;;9.25;7.50;;;7.00;55.20;;;;;;349657;28;926;-54
2024/01/13 00:50:22;;;;;;;9.30;7.60;;;7.00;55.20;;;;;;349568;28;963;-54
2024/01/13 00:50:35;;;;;;;9.82;7.32;;;7.10;55.40;;;;;;349632;28;935;-55
2024/01/13 00:50:45;;;;;;;10.15;7.38;;;7.00;55.40;;;;;;349615;28;898;-54
2024/01/13 00:50:56;;;;;;;10.25;7.40;;;7.10;55.50;;;;;;349634;28;1021;-54
2024/01/13 00:51:08;;;;;;;12.27;7.27;;;7.10;55.50;;;;;;349601;28;1082;-55
2024/01/13 00:51:19;;;;;;;12.80;7.40;;;7.00;55.50;;;;;;349584;28;1055;-54
2024/01/13 00:51:32;;;;;;;10.47;7.37;;;7.00;55.40;;;;;;349632;28;1023;-54
2024/01/13 00:51:43;;;;;;;9.60;7.43;;;7.00;55.40;;;;;;349553;28;975;-54
2024/01/13 00:51:54;;;;;;;9.98;7.32;;;7.00;55.40;;;;;;349603;28;1145;-54
2024/01/13 00:52:05;;;;;;;9.75;7.20;;;7.10;55.40;;;;;;349591;28;983;-54
2024/01/13 00:52:16;;;;;;;9.60;7.38;;;7.00;55.40;;;;;;349533;28;1246;-54
2024/01/13 00:52:27;;;;;;;8.95;7.30;;;7.10;55.40;;;;;;349611;28;837;-54
2024/01/13 00:52:37;;;;;;;9.10;7.43;;;7.00;55.30;;;;;;349578;28;1191;-54
2024/01/13 00:52:48;;;;;;;8.90;7.18;;;7.10;55.30;;;;;;349525;28;933;-53
2024/01/13 00:52:59;;;;;;;8.38;7.20;;;7.00;55.30;;;;;;349571;28;1905;-53
2024/01/13 00:53:10;;;;;;;8.07;7.05;;;7.00;55.30;;;;;;349649;28;1118;-53
2024/01/13 00:53:21;;;;;;;8.07;7.00;;;7.00;55.30;;;;;;349595;28;1054;-54
2024/01/13 00:53:31;;;;;;;7.88;6.88;;;7.00;55.30;;;;;;349636;28;1019;-55
2024/01/13 00:53:42;;;;;;;8.00;6.90;;;7.00;55.30;;;;;;349641;28;963;-54
2024/01/13 00:53:53;;;;;;;8.32;7.05;;;7.00;55.30;;;;;;349528;28;1046;-56
2024/01/13 00:54:06;;;;;;;8.33;7.07;;;7.00;55.30;;;;;;349642;28;998;-55
2024/01/13 00:54:16;;;;;;;7.90;6.97;;;7.00;55.30;;;;;;349568;28;970;-54
2024/01/13 00:54:27;;;;;;;8.65;7.40;;;7.00;55.40;;;;;;349675;28;947;-54
2024/01/13 00:54:40;;;;;;;9.37;7.87;;;7.00;55.50;;;;;;349596;28;1563;-57
2024/01/13 00:54:51;;;;;;;10.38;7.93;;;7.00;55.40;;;;;;349582;28;971;-54
2024/01/13 00:55:01;;;;;;;10.77;8.00;;;7.00;55.30;;;;;;349574;28;1508;-55
2024/01/13 00:55:12;;;;;;;9.73;7.57;;;7.00;55.30;;;;;;349583;28;818;-54
2024/01/13 00:55:23;;;;;;;9.73;7.50;;;7.00;55.20;;;;;;349563;28;1535;-54
2024/01/13 00:55:34;;;;;;;10.13;7.33;;;7.00;55.10;;;;;;349609;28;1415;-55
2024/01/13 00:55:45;;;;;;;10.25;7.38;;;7.00;55.10;;;;;;349558;28;963;-53
2024/01/13 00:55:55;;;;;;;8.95;7.35;;;7.00;55.10;;;;;;349578;28;1163;-53
2024/01/13 00:56:06;;;;;;;9.15;7.57;;;7.00;55.20;;;;;;349621;28;833;-53
2024/01/13 00:56:17;;;;;;;9.32;7.88;;;7.00;55.20;;;;;;349522;28;1031;-53
2024/01/13 00:56:28;;;;;;;10.38;8.00;;;7.10;55.20;;;;;;349587;28;1102;-53
2024/01/13 00:56:39;;;;;;;10.07;7.85;;;7.00;55.10;;;;;;349673;28;868;-54
2024/01/13 00:56:50;;;;;;;9.82;7.72;;;7.00;55.10;;;;;;349560;28;984;-53
2024/01/13 00:57:01;;;;;;;9.90;7.82;;;7.00;55.10;;;;;;349592;28;1014;-53
2024/01/13 00:57:11;;;;;;;10.15;8.00;;;7.00;55.20;;;;;;349664;28;892;-53
2024/01/13 00:57:22;;;;;;;10.43;7.87;;;7.10;55.20;;;;;;349587;28;1154;-52
2024/01/13 00:57:33;;;;;;;11.00;7.80;;;7.00;55.20;;;;;;349575;28;1010;-53
2024/01/13 00:57:44;;;;;;;11.05;7.63;;;7.00;55.20;;;;;;349620;28;1031;-53
2024/01/13 00:57:54;;;;;;;10.15;7.55;;;7.00;55.20;;;;;;349569;28;930;-53
2024/01/13 00:58:05;;;;;;;10.10;7.82;;;7.00;55.20;;;;;;349586;28;1090;-54
2024/01/13 00:58:16;;;;;;;9.10;7.80;;;7.00;55.20;;;;;;349546;28;1451;-54
2024/01/13 00:58:27;;;;;;;9.70;7.67;;;7.00;55.10;;;;;;349595;28;1177;-54
2024/01/13 00:58:38;;;;;;;9.50;7.60;;;7.00;55.00;;;;;;349560;28;1055;-54
2024/01/13 00:58:49;;;;;;;10.48;7.78;;;7.00;55.10;;;;;;349607;28;836;-53